createdAt,value
2023-01-25T00:01:55.979Z,79.47
2023-01-25T00:04:23.594Z,79.70
2023-01-25T00:06:50.943Z,79.75
2023-01-25T00:09:18.359Z,79.79
2023-01-25T00:11:45.500Z,80.06
2023-01-25T00:14:13.293Z,80.17
2023-01-25T00:16:40.477Z,80.42
2023-01-25T00:19:08.198Z,80.29
2023-01-25T00:21:35.440Z,80.27
2023-01-25T00:24:02.947Z,80.51
2023-01-25T00:26:35.920Z,80.47
2023-01-25T00:29:03.552Z,80.59
2023-01-25T00:31:59.049Z,80.51
2023-01-25T00:34:25.719Z,80.41
2023-01-25T00:36:55.424Z,80.39
2023-01-25T00:39:21.919Z,80.28
2023-01-25T00:41:48.543Z,80.30
2023-01-25T00:44:15.321Z,80.43
2023-01-25T00:46:41.998Z,80.43
2023-01-25T00:49:20.059Z,80.42
2023-01-25T00:51:46.581Z,80.37
2023-01-25T00:54:13.132Z,80.25
2023-01-25T00:56:39.719Z,80.33
2023-01-25T00:59:06.730Z,80.52
2023-01-25T01:01:35.074Z,80.57
2023-01-25T01:04:01.651Z,80.46
2023-01-25T01:06:28.193Z,80.35
2023-01-25T01:08:54.785Z,80.33
2023-01-25T01:11:21.310Z,80.38
2023-01-25T01:13:47.862Z,80.21
2023-01-25T01:16:14.706Z,80.06
2023-01-25T01:18:43.627Z,80.18
2023-01-25T01:21:12.408Z,80.10
2023-01-25T01:23:39.325Z,80.22
2023-01-25T01:26:08.828Z,80.12
2023-01-25T01:28:36.642Z,80.22
2023-01-25T01:31:05.187Z,80.30
2023-01-25T01:33:31.671Z,80.17
2023-01-25T01:35:58.520Z,79.97
2023-01-25T01:38:25.471Z,79.94
2023-01-25T01:40:52.004Z,79.81
2023-01-25T01:43:23.050Z,80.06
2023-01-25T01:45:49.615Z,80.04
2023-01-25T01:48:27.906Z,80.12
2023-01-25T01:51:19.485Z,80.26
2023-01-25T01:54:01.920Z,80.18
2023-01-25T01:56:44.666Z,80.12
2023-01-25T01:59:11.687Z,80.05
2023-01-25T02:01:38.656Z,79.98
2023-01-25T02:04:06.908Z,79.91
2023-01-25T02:06:54.226Z,80.00
2023-01-25T02:09:23.595Z,79.91
2023-01-25T02:11:52.237Z,79.93
2023-01-25T02:14:19.752Z,80.09
2023-01-25T02:16:46.562Z,80.02
2023-01-25T02:19:36.594Z,80.15
2023-01-25T02:22:08.637Z,79.94
2023-01-25T02:24:35.355Z,80.03
2023-01-25T02:27:02.013Z,80.17
2023-01-25T02:29:30.045Z,80.18
2023-01-25T02:32:02.485Z,80.04
2023-01-25T02:34:29.061Z,79.99
2023-01-25T02:36:55.599Z,80.03
2023-01-25T02:39:23.267Z,79.96
2023-01-25T02:41:49.968Z,80.08
2023-01-25T02:44:18.126Z,80.09
2023-01-25T02:46:45.359Z,80.11
2023-01-25T02:49:12.166Z,80.11
2023-01-25T02:51:42.053Z,80.19
2023-01-25T02:54:10.195Z,80.01
2023-01-25T02:56:37.660Z,80.01
2023-01-25T02:59:04.233Z,79.98
2023-01-25T03:01:34.432Z,80.05
2023-01-25T03:04:01.069Z,80.05
2023-01-25T03:06:27.617Z,79.95
2023-01-25T03:08:54.155Z,79.71
2023-01-25T03:11:20.844Z,79.73
2023-01-25T03:13:47.349Z,79.65
2023-01-25T03:16:14.460Z,79.52
2023-01-25T03:18:41.346Z,79.59
2023-01-25T03:21:19.356Z,79.67
2023-01-25T03:23:47.247Z,79.98
2023-01-25T03:26:16.824Z,79.91
2023-01-25T03:28:43.803Z,80.04
2023-01-25T03:31:12.391Z,80.15
2023-01-25T03:33:39.640Z,80.00
2023-01-25T03:36:06.832Z,80.13
2023-01-25T03:38:33.956Z,80.05
2023-01-25T03:41:00.501Z,79.97
2023-01-25T03:43:27.029Z,79.91
2023-01-25T03:45:55.363Z,79.91
2023-01-25T03:48:22.890Z,80.14
2023-01-25T03:50:54.665Z,80.15
2023-01-25T03:53:29.811Z,80.08
2023-01-25T03:56:07.575Z,80.05
2023-01-25T03:58:35.157Z,80.19
2023-01-25T04:01:04.108Z,80.13
2023-01-25T04:03:31.420Z,80.08
2023-01-25T04:05:59.377Z,79.98
2023-01-25T04:08:26.622Z,80.31
2023-01-25T04:11:00.317Z,80.67
2023-01-25T04:13:27.471Z,80.77
2023-01-25T04:15:54.218Z,80.98
2023-01-25T04:18:20.874Z,81.01
2023-01-25T04:20:56.588Z,81.22
2023-01-25T04:23:24.789Z,81.41
2023-01-25T04:26:03.640Z,81.41
2023-01-25T04:28:30.120Z,81.41
2023-01-25T04:30:57.312Z,81.21
2023-01-25T04:33:24.824Z,81.36
2023-01-25T04:35:51.837Z,81.47
2023-01-25T04:38:18.378Z,81.51
2023-01-25T04:40:45.255Z,81.56
2023-01-25T04:43:16.363Z,81.45
2023-01-25T04:45:43.007Z,81.56
2023-01-25T04:48:11.461Z,81.53
2023-01-25T04:50:38.861Z,81.36
2023-01-25T04:53:06.621Z,81.32
2023-01-25T04:55:33.827Z,81.19
2023-01-25T04:58:01.664Z,81.19
2023-01-25T05:00:28.813Z,81.05
2023-01-25T05:02:55.569Z,81.15
2023-01-25T05:05:22.197Z,81.19
2023-01-25T05:07:48.741Z,81.11
2023-01-25T05:10:15.271Z,81.05
2023-01-25T05:12:41.925Z,81.03
2023-01-25T05:15:09.105Z,80.84
2023-01-25T05:17:35.823Z,80.81
2023-01-25T05:20:02.993Z,80.78
2023-01-25T05:22:29.528Z,80.55
2023-01-25T05:24:56.175Z,80.46
2023-01-25T05:27:22.765Z,80.25
2023-01-25T05:29:49.417Z,80.23
2023-01-25T05:32:21.588Z,80.06
2023-01-25T05:34:48.593Z,79.99
2023-01-25T05:37:18.309Z,80.04
2023-01-25T05:39:45.230Z,79.91
2023-01-25T05:42:14.377Z,79.83
2023-01-25T05:44:41.104Z,79.91
2023-01-25T05:47:12.979Z,79.62
2023-01-25T05:49:39.511Z,79.61
2023-01-25T05:52:06.242Z,79.51
2023-01-25T05:54:32.788Z,79.36
2023-01-25T05:56:59.298Z,79.36
2023-01-25T05:59:25.778Z,79.21
2023-01-25T06:01:53.030Z,79.07
2023-01-25T06:04:19.520Z,79.02
2023-01-25T06:06:46.105Z,78.88
2023-01-25T06:09:13.609Z,78.76
2023-01-25T06:11:42.763Z,78.69
2023-01-25T06:14:09.226Z,78.44
2023-01-25T06:16:35.701Z,78.50
2023-01-25T06:19:02.227Z,78.49
2023-01-25T06:21:28.728Z,78.32
2023-01-25T06:23:55.286Z,78.25
2023-01-25T06:26:21.820Z,78.12
2023-01-25T06:28:48.410Z,77.98
2023-01-25T06:31:19.059Z,77.97
2023-01-25T06:33:52.590Z,77.87
2023-01-25T06:36:21.602Z,77.96
2023-01-25T06:38:52.846Z,77.74
2023-01-25T06:41:20.045Z,77.72
2023-01-25T06:43:47.214Z,77.67
2023-01-25T06:46:13.746Z,77.73
2023-01-25T06:48:40.518Z,77.68
2023-01-25T06:51:10.520Z,77.58
2023-01-25T06:53:39.669Z,77.47
2023-01-25T06:56:09.993Z,77.30
2023-01-25T06:58:37.942Z,77.24
2023-01-25T07:01:07.476Z,77.31
2023-01-25T07:03:34.827Z,77.35
2023-01-25T07:06:03.131Z,77.18
2023-01-25T07:08:30.259Z,77.15
2023-01-25T07:10:58.461Z,77.09
2023-01-25T07:13:26.292Z,76.81
2023-01-25T07:16:00.939Z,76.72
2023-01-25T07:18:29.430Z,76.74
2023-01-25T07:21:02.241Z,76.59
2023-01-25T07:23:31.006Z,76.47
2023-01-25T07:25:57.509Z,76.44
2023-01-25T07:28:23.988Z,76.23
2023-01-25T07:30:50.453Z,76.14
2023-01-25T07:33:17.277Z,76.08
2023-01-25T07:35:43.932Z,75.96
2023-01-25T07:38:10.460Z,75.93
2023-01-25T07:40:36.959Z,75.73
2023-01-25T07:43:03.484Z,75.46
2023-01-25T07:45:30.930Z,75.45
2023-01-25T07:47:59.000Z,75.28
2023-01-25T07:50:28.709Z,75.12
2023-01-25T07:52:55.263Z,75.20
2023-01-25T07:55:24.229Z,75.07
2023-01-25T07:57:57.351Z,75.10
2023-01-25T08:00:25.013Z,74.74
2023-01-25T08:02:52.425Z,74.50
2023-01-25T08:05:19.215Z,74.49
2023-01-25T08:07:47.037Z,74.68
2023-01-25T08:10:14.069Z,74.53
2023-01-25T08:12:44.933Z,74.54
2023-01-25T08:15:12.841Z,74.31
2023-01-25T08:17:39.719Z,74.33
2023-01-25T08:20:07.181Z,74.27
2023-01-25T08:22:33.656Z,74.36
2023-01-25T08:25:00.229Z,74.42
2023-01-25T08:27:28.499Z,74.29
2023-01-25T08:29:55.307Z,74.06
2023-01-25T08:32:21.755Z,73.98
2023-01-25T08:34:48.251Z,74.08
2023-01-25T08:37:14.781Z,74.09
2023-01-25T08:39:41.883Z,73.64
2023-01-25T08:42:08.407Z,73.27
2023-01-25T08:44:34.881Z,73.14
2023-01-25T08:47:01.347Z,72.94
2023-01-25T08:49:27.835Z,72.97
2023-01-25T08:51:54.304Z,73.05
2023-01-25T08:54:20.933Z,72.81
2023-01-25T08:56:47.465Z,72.71
2023-01-25T08:59:14.211Z,72.61
2023-01-25T09:01:43.776Z,72.52
2023-01-25T09:04:10.226Z,72.16
2023-01-25T09:06:36.763Z,72.26
2023-01-25T09:09:03.917Z,72.50
2023-01-25T09:11:30.760Z,72.13
2023-01-25T09:13:57.244Z,71.69
2023-01-25T09:16:25.356Z,72.00
2023-01-25T09:18:52.061Z,72.12
2023-01-25T09:21:19.600Z,72.17
2023-01-25T09:24:05.086Z,72.04
2023-01-25T09:26:34.925Z,71.80
2023-01-25T09:29:01.681Z,71.70
2023-01-25T09:31:28.439Z,71.75
2023-01-25T09:33:55.022Z,71.73
2023-01-25T09:36:21.557Z,71.61
2023-01-25T09:38:48.042Z,71.46
2023-01-25T09:41:44.020Z,71.26
2023-01-25T09:44:29.234Z,71.41
2023-01-25T09:47:04.723Z,71.42
2023-01-25T09:50:05.197Z,71.51
2023-01-25T09:52:53.333Z,71.65
2023-01-25T09:55:24.845Z,71.47
2023-01-25T09:57:52.981Z,71.49
2023-01-25T10:00:22.254Z,71.51
2023-01-25T10:03:02.955Z,71.50
2023-01-25T10:05:36.301Z,71.18
2023-01-25T10:08:34.181Z,70.97
2023-01-25T10:11:20.844Z,70.74
2023-01-25T10:13:47.325Z,70.58
2023-01-25T10:16:25.854Z,70.76
2023-01-25T10:19:23.260Z,70.98
2023-01-25T10:21:56.341Z,70.81
2023-01-25T10:24:38.048Z,70.68
2023-01-25T10:27:23.043Z,70.84
2023-01-25T10:29:52.114Z,70.77
2023-01-25T10:32:30.711Z,71.05
2023-01-25T10:35:01.215Z,70.92
2023-01-25T10:37:30.936Z,70.96
2023-01-25T10:40:12.690Z,70.94
2023-01-25T10:42:41.339Z,70.98
2023-01-25T10:45:15.868Z,71.21
2023-01-25T10:47:54.868Z,71.38
2023-01-25T10:50:57.159Z,71.38
2023-01-25T10:53:27.965Z,70.94
2023-01-25T10:56:06.524Z,70.87
2023-01-25T10:58:40.405Z,71.10
2023-01-25T11:01:34.200Z,70.87
2023-01-25T11:04:01.726Z,70.25
2023-01-25T11:06:48.191Z,70.09
2023-01-25T11:09:36.982Z,70.32
2023-01-25T11:12:05.464Z,70.47
2023-01-25T11:14:33.002Z,70.36
2023-01-25T11:17:02.665Z,70.12
2023-01-25T11:19:34.931Z,69.86
2023-01-25T11:22:04.705Z,69.49
2023-01-25T11:24:33.803Z,69.59
2023-01-25T11:27:23.592Z,69.48
2023-01-25T11:30:05.191Z,69.38
2023-01-25T11:32:32.518Z,69.34
2023-01-25T11:34:59.403Z,68.81
2023-01-25T11:37:46.788Z,68.82
2023-01-25T11:40:49.967Z,68.59
2023-01-25T11:43:19.201Z,68.59
2023-01-25T11:46:06.377Z,68.66
2023-01-25T11:49:10.984Z,68.74
2023-01-25T11:51:42.068Z,68.98
2023-01-25T11:54:30.526Z,68.86
2023-01-25T11:57:23.979Z,68.39
2023-01-25T12:00:18.401Z,68.42
2023-01-25T12:03:03.123Z,68.16
2023-01-25T12:05:59.418Z,67.79
2023-01-25T12:09:10.089Z,67.44
2023-01-25T12:11:51.762Z,67.52
2023-01-25T12:14:45.228Z,67.30
2023-01-25T12:17:27.877Z,67.31
2023-01-25T12:20:10.881Z,67.56
2023-01-25T12:23:15.173Z,68.16
2023-01-25T12:25:44.608Z,67.79
2023-01-25T12:28:19.573Z,68.18
2023-01-25T12:31:25.256Z,68.30
2023-01-25T12:34:04.541Z,68.11
2023-01-25T12:36:40.458Z,68.23
2023-01-25T12:39:21.962Z,68.35
2023-01-25T12:42:24.363Z,68.45
2023-01-25T12:45:25.464Z,68.33
2023-01-25T12:48:18.386Z,68.20
2023-01-25T12:50:54.706Z,68.12
2023-01-25T12:53:40.980Z,68.48
2023-01-25T12:56:21.714Z,68.31
2023-01-25T12:59:06.275Z,67.84
2023-01-25T13:01:39.856Z,67.77
2023-01-25T13:04:43.131Z,67.95
2023-01-25T13:07:34.581Z,67.85
2023-01-25T13:10:10.183Z,67.83
2023-01-25T13:13:00.418Z,67.37
2023-01-25T13:15:47.322Z,67.01
2023-01-25T13:18:29.209Z,67.31
2023-01-25T13:20:57.587Z,67.40
2023-01-25T13:23:41.843Z,67.27
2023-01-25T13:26:23.687Z,67.21
2023-01-25T13:28:53.972Z,67.43
2023-01-25T13:31:50.968Z,67.16
2023-01-25T13:34:36.034Z,67.13
2023-01-25T13:37:30.059Z,67.28
2023-01-25T13:40:30.697Z,67.01
2023-01-25T13:43:03.525Z,66.83
2023-01-25T13:45:34.651Z,66.82
2023-01-25T13:48:18.424Z,67.08
2023-01-25T13:50:59.144Z,67.22
2023-01-25T13:53:27.254Z,67.14
2023-01-25T13:55:56.550Z,67.05
2023-01-25T13:58:31.656Z,67.01
2023-01-25T14:01:00.726Z,67.19
2023-01-25T14:03:36.105Z,67.10
2023-01-25T14:06:03.481Z,67.16
2023-01-25T14:08:31.795Z,67.22
2023-01-25T14:10:59.118Z,67.43
2023-01-25T14:13:25.639Z,67.47
2023-01-25T14:16:00.663Z,67.41
2023-01-25T14:18:33.092Z,67.18
2023-01-25T14:21:21.915Z,67.57
2023-01-25T14:23:49.226Z,67.78
2023-01-25T14:26:19.912Z,67.82
2023-01-25T14:28:59.412Z,67.97
2023-01-25T14:31:34.644Z,68.07
2023-01-25T14:34:02.415Z,68.17
2023-01-25T14:36:30.597Z,68.32
2023-01-25T14:38:57.811Z,67.98
2023-01-25T14:41:43.789Z,68.26
2023-01-25T14:44:15.752Z,68.35
2023-01-25T14:46:42.778Z,68.49
2023-01-25T14:49:12.183Z,68.54
2023-01-25T14:52:10.650Z,68.81
2023-01-25T14:54:58.583Z,68.71
2023-01-25T14:57:37.878Z,68.77
2023-01-25T15:00:22.997Z,68.81
2023-01-25T15:02:57.534Z,68.83
2023-01-25T15:05:27.326Z,68.84
2023-01-25T15:07:55.718Z,68.87
2023-01-25T15:10:25.143Z,69.07
2023-01-25T15:13:18.390Z,69.38
2023-01-25T15:15:58.717Z,69.65
2023-01-25T15:18:53.860Z,69.75
2023-01-25T15:21:24.403Z,70.02
2023-01-25T15:23:51.973Z,70.06
2023-01-25T15:26:21.347Z,70.10
2023-01-25T15:28:51.659Z,70.15
2023-01-25T15:31:20.599Z,70.19
2023-01-25T15:33:47.215Z,70.20
2023-01-25T15:36:14.555Z,70.25
2023-01-25T15:38:41.912Z,69.97
2023-01-25T15:41:08.680Z,69.83
2023-01-25T15:43:35.289Z,69.82
2023-01-25T15:46:02.945Z,69.80
2023-01-25T15:48:35.934Z,69.94
2023-01-25T15:51:02.488Z,70.02
2023-01-25T15:53:29.147Z,70.23
2023-01-25T15:56:26.545Z,70.37
2023-01-25T15:58:55.443Z,70.46
2023-01-25T16:01:24.366Z,70.53
2023-01-25T16:03:51.042Z,70.73
2023-01-25T16:06:31.305Z,70.74
2023-01-25T16:08:59.550Z,70.84
2023-01-25T16:11:29.843Z,71.11
2023-01-25T16:13:56.350Z,71.06
2023-01-25T16:16:25.107Z,71.06
2023-01-25T16:18:51.734Z,71.08
2023-01-25T16:21:18.394Z,71.07
2023-01-25T16:23:44.911Z,71.29
2023-01-25T16:26:20.941Z,71.25
2023-01-25T16:28:49.023Z,71.28
2023-01-25T16:31:30.767Z,71.29
2023-01-25T16:33:58.463Z,71.39
2023-01-25T16:36:28.244Z,71.40
2023-01-25T16:38:54.834Z,71.48
2023-01-25T16:41:21.472Z,71.57
2023-01-25T16:43:49.241Z,71.55
2023-01-25T16:46:22.868Z,71.59
2023-01-25T16:48:51.947Z,71.57
2023-01-25T16:51:27.836Z,71.66
2023-01-25T16:53:57.481Z,71.69
2023-01-25T16:56:32.059Z,71.71
2023-01-25T16:59:02.509Z,71.76
2023-01-25T17:01:29.156Z,71.85
2023-01-25T17:03:56.454Z,71.82
2023-01-25T17:06:26.445Z,71.81
2023-01-25T17:08:56.194Z,72.00
2023-01-25T17:11:23.340Z,71.94
2023-01-25T17:13:56.301Z,71.90
2023-01-25T17:16:25.580Z,72.05
2023-01-25T17:19:02.994Z,72.12
2023-01-25T17:21:29.847Z,72.24
2023-01-25T17:23:57.857Z,72.25
2023-01-25T17:26:25.118Z,72.35
2023-01-25T17:28:52.349Z,72.31
2023-01-25T17:31:20.485Z,72.25
2023-01-25T17:33:47.103Z,72.16
2023-01-25T17:36:15.170Z,72.04
2023-01-25T17:38:42.505Z,72.25
2023-01-25T17:41:11.428Z,72.08
2023-01-25T17:43:38.139Z,72.06
2023-01-25T17:46:22.672Z,72.30
2023-01-25T17:48:49.239Z,72.17
2023-01-25T17:51:15.865Z,71.98
2023-01-25T17:53:43.431Z,71.87
2023-01-25T17:56:12.036Z,71.84
2023-01-25T17:58:40.032Z,72.06
2023-01-25T18:01:24.814Z,72.37
2023-01-25T18:03:53.259Z,72.39
2023-01-25T18:06:23.055Z,72.42
2023-01-25T18:08:51.836Z,72.47
2023-01-25T18:11:21.496Z,72.50
2023-01-25T18:13:53.162Z,72.54
2023-01-25T18:16:20.272Z,72.54
2023-01-25T18:18:47.552Z,72.74
2023-01-25T18:21:17.260Z,72.62
2023-01-25T18:23:47.123Z,72.65
2023-01-25T18:26:21.233Z,72.79
2023-01-25T18:28:48.271Z,72.79
2023-01-25T18:31:15.316Z,72.91
2023-01-25T18:33:41.848Z,72.81
2023-01-25T18:36:08.783Z,72.91
2023-01-25T18:38:35.272Z,72.90
2023-01-25T18:41:04.316Z,72.70
2023-01-25T18:43:30.770Z,72.86
2023-01-25T18:45:58.569Z,72.98
2023-01-25T18:48:26.642Z,73.03
2023-01-25T18:50:53.150Z,73.19
2023-01-25T18:53:20.044Z,73.34
2023-01-25T18:56:01.307Z,73.51
2023-01-25T18:58:30.076Z,73.46
2023-01-25T19:01:02.690Z,73.49
2023-01-25T19:03:29.291Z,73.64
2023-01-25T19:06:00.238Z,73.90
2023-01-25T19:08:27.693Z,74.03
2023-01-25T19:11:02.628Z,74.13
2023-01-25T19:13:32.273Z,74.11
2023-01-25T19:16:04.657Z,74.11
2023-01-25T19:18:36.925Z,73.93
2023-01-25T19:21:08.294Z,73.87
2023-01-25T19:23:40.808Z,73.90
2023-01-25T19:26:10.444Z,73.97
2023-01-25T19:28:37.005Z,74.02
2023-01-25T19:31:12.575Z,74.22
2023-01-25T19:33:39.889Z,74.36
2023-01-25T19:36:08.699Z,74.48
2023-01-25T19:38:41.274Z,74.58
2023-01-25T19:41:12.857Z,74.62
2023-01-25T19:43:39.576Z,74.46
2023-01-25T19:46:12.305Z,74.65
2023-01-25T19:48:39.900Z,74.63
2023-01-25T19:51:21.639Z,74.72
2023-01-25T19:53:53.750Z,74.69
2023-01-25T19:56:20.495Z,74.79
2023-01-25T19:58:48.792Z,74.69
2023-01-25T20:01:20.651Z,74.71
2023-01-25T20:03:47.452Z,74.66
2023-01-25T20:06:16.285Z,74.70
2023-01-25T20:08:45.204Z,74.76
2023-01-25T20:11:14.700Z,74.63
2023-01-25T20:13:42.300Z,74.72
2023-01-25T20:16:10.627Z,74.58
2023-01-25T20:18:37.392Z,74.61
2023-01-25T20:21:10.551Z,74.50
2023-01-25T20:23:39.993Z,74.49
2023-01-25T20:26:13.815Z,74.52
2023-01-25T20:28:41.693Z,74.56
2023-01-25T20:31:25.998Z,74.60
2023-01-25T20:33:56.663Z,74.48
2023-01-25T20:36:24.308Z,74.50
2023-01-25T20:38:51.471Z,74.67
2023-01-25T20:41:20.229Z,74.48
2023-01-25T20:43:52.133Z,74.43
2023-01-25T20:46:20.636Z,74.67
2023-01-25T20:48:48.524Z,74.64
2023-01-25T20:51:15.966Z,74.67
2023-01-25T20:53:44.491Z,74.77
2023-01-25T20:56:12.623Z,74.69
2023-01-25T20:58:39.141Z,74.75
2023-01-25T21:01:13.729Z,74.93
2023-01-25T21:03:40.881Z,74.90
2023-01-25T21:06:08.023Z,74.83
2023-01-25T21:08:34.568Z,74.85
2023-01-25T21:11:01.937Z,74.78
2023-01-25T21:13:29.182Z,74.66
2023-01-25T21:16:09.349Z,74.73
2023-01-25T21:18:40.119Z,74.60
2023-01-25T21:21:06.580Z,74.70
2023-01-25T21:23:33.741Z,74.73
2023-01-25T21:26:04.583Z,74.67
2023-01-25T21:28:32.043Z,74.62
2023-01-25T21:30:59.534Z,74.51
2023-01-25T21:33:26.141Z,74.59
2023-01-25T21:35:54.231Z,74.60
2023-01-25T21:38:21.374Z,74.64
2023-01-25T21:40:47.873Z,74.52
2023-01-25T21:43:14.781Z,74.60
2023-01-25T21:45:41.275Z,74.53
2023-01-25T21:48:07.779Z,74.58
2023-01-25T21:50:34.289Z,74.55
2023-01-25T21:53:00.749Z,74.66
2023-01-25T21:55:27.272Z,74.77
2023-01-25T21:57:53.913Z,74.78
2023-01-25T22:00:23.152Z,74.77
2023-01-25T22:02:51.458Z,74.66
2023-01-25T22:05:17.967Z,74.67
2023-01-25T22:07:44.442Z,74.78
2023-01-25T22:10:11.725Z,74.87
2023-01-25T22:12:38.406Z,74.88
2023-01-25T22:15:05.458Z,74.87
2023-01-25T22:17:31.961Z,74.91
2023-01-25T22:19:58.427Z,74.88
2023-01-25T22:22:25.587Z,74.84
2023-01-25T22:24:52.072Z,74.87
2023-01-25T22:27:37.909Z,74.68
2023-01-25T22:30:06.006Z,74.74
2023-01-25T22:32:32.482Z,74.86
2023-01-25T22:34:59.051Z,74.80
2023-01-25T22:37:28.867Z,74.88
2023-01-25T22:39:55.411Z,74.87
2023-01-25T22:42:21.937Z,74.66
2023-01-25T22:44:48.509Z,74.81
2023-01-25T22:47:15.055Z,74.88
2023-01-25T22:49:41.542Z,74.87
2023-01-25T22:52:07.999Z,75.06
2023-01-25T22:54:34.548Z,74.93
2023-01-25T22:57:01.044Z,74.96
2023-01-25T22:59:27.640Z,75.13
2023-01-25T23:01:54.097Z,75.12
2023-01-25T23:04:20.729Z,75.12
2023-01-25T23:06:47.223Z,75.11
2023-01-25T23:09:13.904Z,75.29
2023-01-25T23:11:40.404Z,75.26
2023-01-25T23:14:11.364Z,75.14
2023-01-25T23:16:37.945Z,75.08
2023-01-25T23:19:05.330Z,74.94
2023-01-25T23:21:32.279Z,74.85
2023-01-25T23:24:00.405Z,74.97
2023-01-25T23:26:27.605Z,74.84
2023-01-25T23:28:56.806Z,75.04
2023-01-25T23:31:24.850Z,75.12
2023-01-25T23:33:54.386Z,74.83
2023-01-25T23:36:24.922Z,74.79
2023-01-25T23:38:53.017Z,74.75
2023-01-25T23:41:21.560Z,74.71
2023-01-25T23:43:48.727Z,74.73
2023-01-25T23:46:16.079Z,74.82
2023-01-25T23:48:44.275Z,74.95
2023-01-25T23:51:12.466Z,74.99
2023-01-25T23:53:40.005Z,74.83
2023-01-25T23:56:10.479Z,74.84
2023-01-25T23:58:38.433Z,75.00
